Time;durP1;ratioP1;P1;durP2;ratioP2;P2;SDS_P1;SDS_P2;PMS_P1;PMS_P2;Temp;Humidity;BMP_temperature;BMP_pressure;BME280_temperature;BME280_humidity;BME280_pressure;Samples;Min_cycle;Max_cycle;Signal;HPM_P1;HPM_P2
2022/01/29 00:02:06;;;;;;;24.03;5.67;;;3.30;99.90;;;;;;4952224;28;20580;-50
2022/01/29 00:04:33;;;;;;;24.00;4.90;;;3.30;99.90;;;;;;4951738;28;20478;-52
2022/01/29 00:06:59;;;;;;;15.80;4.77;;;3.30;99.90;;;;;;4951488;28;20564;-50
2022/01/29 00:09:26;;;;;;;18.37;5.20;;;3.30;99.90;;;;;;4952631;28;20465;-52
2022/01/29 00:11:53;;;;;;;30.33;5.10;;;3.30;99.90;;;;;;4947661;28;20982;-51
2022/01/29 00:14:21;;;;;;;18.97;4.87;;;3.30;99.90;;;;;;4947332;29;20494;-51
2022/01/29 00:16:47;;;;;;;14.00;4.13;;;3.30;99.90;;;;;;4951017;28;20469;-50
2022/01/29 00:19:15;;;;;;;17.47;5.67;;;3.30;99.90;;;;;;4952548;28;20557;-52
2022/01/29 00:21:42;;;;;;;18.43;4.53;;;3.30;99.90;;;;;;4952955;28;20549;-51
2022/01/29 00:24:08;;;;;;;19.00;5.07;;;3.30;99.90;;;;;;4953035;29;20534;-51
2022/01/29 00:26:35;;;;;;;16.10;4.50;;;3.30;99.90;;;;;;4953546;28;20914;-50
2022/01/29 00:29:08;;;;;;;17.67;4.50;;;3.30;99.90;;;;;;4950716;28;20501;-50
2022/01/29 00:31:35;;;;;;;16.13;4.97;;;3.30;99.90;;;;;;4946106;29;20462;-52
2022/01/29 00:34:01;;;;;;;21.73;5.00;;;3.40;99.90;;;;;;4950620;28;20513;-52
2022/01/29 00:36:29;;;;;;;27.30;6.43;;;3.40;99.90;;;;;;4949710;29;20570;-52
2022/01/29 00:38:55;;;;;;;33.37;5.90;;;3.40;99.90;;;;;;4951489;28;20493;-51
2022/01/29 00:41:22;;;;;;;16.30;5.77;;;3.40;99.90;;;;;;4950110;28;20546;-51
2022/01/29 00:43:49;;;;;;;26.53;7.47;;;3.50;99.90;;;;;;4949147;28;20576;-51
2022/01/29 00:46:15;;;;;;;22.90;6.97;;;3.50;99.90;;;;;;4950178;28;20582;-50
2022/01/29 00:48:42;;;;;;;21.50;7.30;;;3.50;99.90;;;;;;4952600;28;20502;-50
2022/01/29 00:51:08;;;;;;;21.87;6.83;;;3.50;99.90;;;;;;4949609;28;20558;-51
2022/01/29 00:53:36;;;;;;;28.57;6.67;;;3.50;99.90;;;;;;4950806;28;20585;-51
2022/01/29 00:56:06;;;;;;;21.60;6.60;;;3.50;99.90;;;;;;4952306;28;20497;-51
2022/01/29 00:58:33;;;;;;;33.83;6.40;;;3.60;99.90;;;;;;4949509;28;20465;-51
2022/01/29 01:01:00;;;;;;;18.57;5.40;;;3.60;99.90;;;;;;4948753;28;20458;-51
2022/01/29 01:03:26;;;;;;;21.20;5.77;;;3.50;99.90;;;;;;4949443;28;20909;-51
2022/01/29 01:05:53;;;;;;;18.93;6.13;;;3.50;99.90;;;;;;4952561;28;20629;-51
2022/01/29 01:08:19;;;;;;;31.00;6.50;;;3.50;99.90;;;;;;4949278;28;20446;-51
2022/01/29 01:10:47;;;;;;;19.33;4.50;;;3.50;99.90;;;;;;4948095;28;20556;-51
2022/01/29 01:13:14;;;;;;;23.83;6.10;;;3.50;99.90;;;;;;4951140;29;20569;-51
2022/01/29 01:15:40;;;;;;;23.10;5.53;;;3.50;99.90;;;;;;4939250;28;20486;-52
2022/01/29 01:18:07;;;;;;;19.47;5.60;;;3.50;99.90;;;;;;4949784;28;20915;-51
2022/01/29 01:20:33;;;;;;;16.40;4.97;;;3.50;99.90;;;;;;4945915;28;21740;-51
2022/01/29 01:23:00;;;;;;;21.27;5.20;;;3.50;99.90;;;;;;4948292;28;21078;-51
2022/01/29 01:25:27;;;;;;;28.30;6.90;;;3.50;99.90;;;;;;5027511;22;20581;-52
2022/01/29 01:27:56;;;;;;;20.97;4.90;;;3.50;99.90;;;;;;5026059;28;20490;-58
2022/01/29 01:30:22;;;;;;;20.17;4.80;;;3.50;99.90;;;;;;5028069;28;20525;-51
2022/01/29 01:32:49;;;;;;;22.13;6.20;;;3.60;99.90;;;;;;5030200;28;20513;-51
2022/01/29 01:35:20;;;;;;;15.33;5.27;;;3.60;99.90;;;;;;5043277;28;20494;-51
2022/01/29 01:37:51;;;;;;;25.43;6.60;;;3.60;99.90;;;;;;5046048;28;20553;-52
2022/01/29 01:40:20;;;;;;;18.00;4.57;;;3.50;99.90;;;;;;5046311;28;20477;-52
2022/01/29 01:42:47;;;;;;;24.40;5.67;;;3.60;99.90;;;;;;5048059;28;20484;-52
2022/01/29 01:45:15;;;;;;;19.70;5.40;;;3.60;99.90;;;;;;5048977;28;20892;-52
2022/01/29 01:47:42;;;;;;;17.07;5.60;;;3.60;99.90;;;;;;5052023;28;21054;-52
2022/01/29 01:50:10;;;;;;;15.70;4.47;;;3.60;99.90;;;;;;5049884;28;20963;-51
2022/01/29 01:52:37;;;;;;;25.07;5.07;;;3.60;99.90;;;;;;5052147;28;20494;-50
2022/01/29 01:55:04;;;;;;;22.77;5.20;;;3.60;99.90;;;;;;5047539;28;20574;-51
2022/01/29 01:57:31;;;;;;;13.60;4.77;;;3.60;99.90;;;;;;5049380;28;20508;-51
2022/01/29 01:59:57;;;;;;;19.07;5.03;;;3.60;99.90;;;;;;5050012;28;20959;-51
2022/01/29 02:02:25;;;;;;;29.70;5.20;;;3.60;99.90;;;;;;5048927;28;20553;-50
2022/01/29 02:04:52;;;;;;;22.17;5.87;;;3.60;99.90;;;;;;5050879;28;20486;-52
2022/01/29 02:07:19;;;;;;;20.73;5.43;;;3.60;99.90;;;;;;5041151;28;20554;-50
2022/01/29 02:09:46;;;;;;;22.77;4.87;;;3.60;99.90;;;;;;5047999;28;20559;-50
2022/01/29 02:12:13;;;;;;;21.33;5.40;;;3.60;99.90;;;;;;5047535;28;20522;-50
2022/01/29 02:14:40;;;;;;;22.63;5.90;;;3.70;99.90;;;;;;5045141;28;20497;-50
2022/01/29 02:17:09;;;;;;;24.60;5.20;;;3.60;99.90;;;;;;5043590;28;20454;-50
2022/01/29 02:19:37;;;;;;;16.40;5.03;;;3.70;99.90;;;;;;5046093;28;20511;-56
2022/01/29 02:22:06;;;;;;;19.40;5.40;;;3.70;99.90;;;;;;5042894;28;20999;-52
2022/01/29 02:24:32;;;;;;;28.90;5.10;;;3.70;99.90;;;;;;5046581;28;20489;-51
2022/01/29 02:26:59;;;;;;;28.67;5.57;;;3.60;99.90;;;;;;5042326;28;20510;-51
2022/01/29 02:29:26;;;;;;;18.57;5.37;;;3.60;99.90;;;;;;5043027;28;20814;-50
2022/01/29 02:31:55;;;;;;;23.23;5.33;;;3.60;99.90;;;;;;5049033;28;20561;-51
2022/01/29 02:34:23;;;;;;;23.73;6.60;;;3.60;99.90;;;;;;5045451;28;20509;-51
2022/01/29 02:36:51;;;;;;;17.13;4.53;;;3.50;84.10;;;;;;5049716;28;20531;-50
2022/01/29 02:39:20;;;;;;;14.83;4.20;;;3.50;44.10;;;;;;5052922;28;20481;-51
2022/01/29 02:41:47;;;;;;;8.37;4.47;;;3.40;20.40;;;;;;5048125;28;21026;-51
2022/01/29 02:44:18;;;;;;;18.93;5.80;;;3.30;99.90;;;;;;5047623;28;20513;-50
2022/01/29 02:46:52;;;;;;;13.97;4.83;;;3.20;99.90;;;;;;5041860;28;20486;-51
2022/01/29 02:49:21;;;;;;;37.27;6.80;;;3.20;99.90;;;;;;5033863;28;20451;-51
2022/01/29 02:51:49;;;;;;;21.00;5.40;;;3.20;99.90;;;;;;5033937;28;20450;-51
2022/01/29 02:54:16;;;;;;;29.87;6.30;;;3.10;99.90;;;;;;5035291;28;20571;-50
2022/01/29 02:56:44;;;;;;;17.97;5.20;;;3.10;99.90;;;;;;5053081;28;20525;-51
2022/01/29 02:59:11;;;;;;;25.67;5.67;;;3.10;99.90;;;;;;5053675;28;20508;-51
2022/01/29 03:01:38;;;;;;;23.13;6.73;;;3.00;99.90;;;;;;5052426;28;20532;-51
2022/01/29 03:04:05;;;;;;;21.97;5.67;;;3.00;99.90;;;;;;5053520;28;21061;-51
2022/01/29 03:06:32;;;;;;;32.97;7.20;;;3.00;99.90;;;;;;5053454;28;20569;-51
2022/01/29 03:09:00;;;;;;;21.67;6.03;;;3.00;99.90;;;;;;5053219;28;20450;-50
2022/01/29 03:11:27;;;;;;;23.53;6.87;;;3.10;99.90;;;;;;5053402;28;20525;-50
2022/01/29 03:13:55;;;;;;;24.23;6.50;;;3.00;99.90;;;;;;5052818;28;20907;-50
2022/01/29 03:16:21;;;;;;;18.87;5.13;;;3.00;99.90;;;;;;5053297;28;20564;-50
2022/01/29 03:18:48;;;;;;;21.13;5.73;;;3.10;99.90;;;;;;5053053;28;20616;-50
2022/01/29 03:21:14;;;;;;;16.80;5.87;;;3.00;99.90;;;;;;5053320;28;20469;-50
2022/01/29 03:23:41;;;;;;;18.20;6.23;;;3.00;99.90;;;;;;5052848;28;20533;-50
2022/01/29 03:26:08;;;;;;;23.57;6.23;;;3.00;99.90;;;;;;5052747;28;20478;-51
2022/01/29 03:28:34;;;;;;;23.77;6.77;;;3.00;99.90;;;;;;5052660;28;20521;-50
2022/01/29 03:31:02;;;;;;;25.87;6.83;;;2.90;84.40;;;;;;5053091;28;20537;-50
2022/01/29 03:33:30;;;;;;;17.47;6.03;;;2.90;86.30;;;;;;5052995;28;20529;-50
2022/01/29 03:35:56;;;;;;;24.27;6.13;;;2.90;58.70;;;;;;5053027;28;20469;-51
2022/01/29 03:38:24;;;;;;;15.97;6.10;;;2.90;58.80;;;;;;5052631;28;20881;-50
2022/01/29 03:40:51;;;;;;;22.20;6.73;;;2.90;57.70;;;;;;5053007;28;20454;-50
2022/01/29 03:43:26;;;;;;;23.87;6.30;;;2.90;33.30;;;;;;5052639;28;20457;-50
2022/01/29 03:45:52;;;;;;;18.10;5.57;;;2.90;37.90;;;;;;5052790;28;20480;-50
2022/01/29 03:48:20;;;;;;;18.00;6.73;;;2.80;36.30;;;;;;5052445;28;20536;-50
2022/01/29 03:50:47;;;;;;;18.30;6.27;;;2.80;35.50;;;;;;5052600;28;20537;-50
2022/01/29 03:53:13;;;;;;;15.90;5.67;;;2.90;39.90;;;;;;5050874;28;20477;-50
2022/01/29 03:55:40;;;;;;;18.93;6.03;;;2.80;43.70;;;;;;5052137;28;20519;-50
2022/01/29 03:58:06;;;;;;;22.83;6.03;;;2.80;40.90;;;;;;5052047;28;20905;-50
2022/01/29 04:00:33;;;;;;;21.30;6.40;;;2.80;36.00;;;;;;5052662;28;20537;-50
2022/01/29 04:02:59;;;;;;;17.63;6.20;;;2.80;31.70;;;;;;5052553;28;20481;-50
2022/01/29 04:05:28;;;;;;;20.73;6.53;;;2.80;26.80;;;;;;5052172;28;20826;-50
2022/01/29 04:07:54;;;;;;;22.60;5.83;;;2.80;99.90;;;;;;5051133;28;20478;-50
2022/01/29 04:10:23;;;;;;;21.40;7.13;;;2.90;99.90;;;;;;5052035;28;20829;-50
2022/01/29 04:12:51;;;;;;;24.57;8.10;;;2.80;99.90;;;;;;5052399;28;20450;-50
2022/01/29 04:15:18;;;;;;;15.50;6.70;;;2.80;99.90;;;;;;5052398;28;20481;-50
2022/01/29 04:17:45;;;;;;;16.83;6.43;;;2.80;99.90;;;;;;5052054;28;20978;-52
2022/01/29 04:20:12;;;;;;;21.37;6.87;;;2.80;99.90;;;;;;5051955;28;20533;-53
2022/01/29 04:22:40;;;;;;;17.60;5.90;;;2.80;99.90;;;;;;5044375;28;20550;-52
2022/01/29 04:25:07;;;;;;;25.70;7.60;;;2.80;99.90;;;;;;5040597;28;21090;-52
2022/01/29 04:27:37;;;;;;;22.63;8.13;;;2.80;99.90;;;;;;5031538;28;21057;-52
2022/01/29 04:30:09;;;;;;;16.97;7.63;;;2.90;99.90;;;;;;5032396;28;20477;-52
2022/01/29 04:32:57;;;;;;;20.60;7.30;;;2.80;99.90;;;;;;5032017;28;20458;-53
2022/01/29 04:35:24;;;;;;;21.63;7.40;;;2.90;99.90;;;;;;5032210;28;20498;-52
2022/01/29 04:37:52;;;;;;;18.13;7.40;;;2.90;99.90;;;;;;5041918;28;21027;-53
2022/01/29 04:40:19;;;;;;;14.27;7.60;;;2.90;99.90;;;;;;5052014;28;20477;-52
2022/01/29 04:42:46;;;;;;;14.97;7.00;;;2.90;99.90;;;;;;5051878;28;20537;-51
2022/01/29 04:45:13;;;;;;;26.57;8.43;;;2.90;99.90;;;;;;5051921;28;20553;-50
2022/01/29 04:47:40;;;;;;;24.33;9.20;;;2.90;99.90;;;;;;5051636;28;20572;-50
2022/01/29 04:50:07;;;;;;;20.90;8.67;;;3.00;99.90;;;;;;5051935;28;20533;-50
2022/01/29 04:52:34;;;;;;;13.83;7.83;;;2.90;99.90;;;;;;5050003;28;20521;-50
2022/01/29 04:55:02;;;;;;;24.10;8.50;;;3.00;99.90;;;;;;5051633;28;20546;-49
2022/01/29 04:57:29;;;;;;;22.70;8.20;;;2.90;99.90;;;;;;5051214;28;20477;-50
2022/01/29 04:59:55;;;;;;;16.10;8.30;;;2.90;99.90;;;;;;5051690;28;20603;-50
2022/01/29 05:02:22;;;;;;;21.03;8.10;;;2.90;99.90;;;;;;5051958;28;20481;-50
2022/01/29 05:04:48;;;;;;;24.77;8.20;;;3.00;99.90;;;;;;5050939;28;20558;-52
2022/01/29 05:07:15;;;;;;;14.37;6.83;;;3.00;99.90;;;;;;5051552;28;20554;-52
2022/01/29 05:09:42;;;;;;;17.43;7.80;;;3.00;99.90;;;;;;5051402;28;20524;-51
2022/01/29 05:12:12;;;;;;;22.43;8.57;;;3.00;99.90;;;;;;5051436;28;20457;-52
2022/01/29 05:14:47;;;;;;;15.97;7.60;;;3.00;99.90;;;;;;5051699;28;20475;-51
2022/01/29 05:26:49;;;;;;;29.63;9.43;;;3.00;99.90;;;;;;5051610;28;20819;-49
2022/01/29 05:28:21;;;;;;;16.80;8.43;;;3.00;99.90;;;;;;5055054;28;20496;-50
2022/01/29 05:30:48;;;;;;;22.90;8.43;;;3.00;99.90;;;;;;5055415;28;20493;-51
2022/01/29 05:33:14;;;;;;;17.60;8.70;;;3.00;99.90;;;;;;5055058;28;20562;-51
2022/01/29 05:35:41;;;;;;;20.40;8.87;;;3.10;93.70;;;;;;5055409;28;20523;-51
2022/01/29 05:38:07;;;;;;;20.73;9.23;;;3.00;94.50;;;;;;5054974;28;20529;-52
2022/01/29 05:40:34;;;;;;;21.40;9.20;;;3.10;97.20;;;;;;5055134;28;20474;-51
2022/01/29 05:43:00;;;;;;;21.63;9.43;;;3.00;95.40;;;;;;5055220;28;20532;-52
2022/01/29 05:45:29;;;;;;;14.67;8.30;;;3.00;97.90;;;;;;5054840;28;20470;-52
2022/01/29 05:47:56;;;;;;;22.03;10.10;;;3.10;93.10;;;;;;5054451;28;20493;-51
2022/01/29 05:50:23;;;;;;;22.53;9.40;;;3.20;82.40;;;;;;5055121;28;20533;-51
2022/01/29 05:52:49;;;;;;;24.80;9.37;;;3.10;91.70;;;;;;5054958;28;20530;-51
2022/01/29 05:55:16;;;;;;;22.13;10.40;;;3.10;92.70;;;;;;5054800;28;20553;-52
2022/01/29 05:57:42;;;;;;;21.73;9.97;;;3.20;87.90;;;;;;5053588;28;20544;-52
2022/01/29 06:00:09;;;;;;;18.87;9.83;;;3.10;94.60;;;;;;5054406;28;20529;-52
2022/01/29 06:02:37;;;;;;;23.97;9.53;;;3.20;97.60;;;;;;5054902;28;20529;-51
2022/01/29 06:05:04;;;;;;;23.97;9.33;;;3.20;92.20;;;;;;5054643;28;20552;-51
2022/01/29 06:07:31;;;;;;;17.27;8.97;;;3.20;99.90;;;;;;5054511;28;20573;-52
2022/01/29 06:09:57;;;;;;;19.23;8.90;;;3.20;88.70;;;;;;5054643;28;20442;-52
2022/01/29 06:12:24;;;;;;;14.90;8.30;;;3.20;86.90;;;;;;5054803;28;20528;-52
2022/01/29 06:14:51;;;;;;;17.93;9.30;;;3.10;88.00;;;;;;5054026;28;20477;-53
2022/01/29 06:17:18;;;;;;;17.77;8.60;;;3.10;82.60;;;;;;5054412;28;21198;-52
2022/01/29 06:19:47;;;;;;;26.13;9.10;;;3.20;79.70;;;;;;5054464;28;20489;-53
2022/01/29 06:22:15;;;;;;;20.57;9.00;;;3.20;79.40;;;;;;5054256;28;20482;-53
2022/01/29 06:24:42;;;;;;;14.27;9.00;;;3.20;77.80;;;;;;5053999;28;20945;-52
2022/01/29 06:27:09;;;;;;;16.77;10.37;;;3.20;74.50;;;;;;5053504;28;20568;-51
2022/01/29 06:29:35;;;;;;;17.97;9.97;;;3.20;71.80;;;;;;5054210;28;20524;-51
2022/01/29 06:32:02;;;;;;;15.83;8.63;;;3.30;63.50;;;;;;5053306;28;20441;-51
2022/01/29 06:34:28;;;;;;;17.30;8.47;;;3.30;61.90;;;;;;5054152;28;20501;-52
2022/01/29 06:36:56;;;;;;;16.63;9.57;;;3.30;62.00;;;;;;5054146;28;20525;-53
2022/01/29 06:39:22;;;;;;;20.10;9.97;;;3.30;59.50;;;;;;5053462;28;20532;-57
2022/01/29 06:41:49;;;;;;;15.27;8.70;;;3.30;62.70;;;;;;5054182;28;20538;-53
2022/01/29 06:44:15;;;;;;;19.33;9.60;;;3.30;61.80;;;;;;5054395;28;21070;-53
2022/01/29 06:46:42;;;;;;;13.10;9.00;;;3.30;61.60;;;;;;5053902;28;20584;-53
2022/01/29 06:49:08;;;;;;;20.67;9.90;;;3.30;57.40;;;;;;5053781;28;20485;-53
2022/01/29 06:51:35;;;;;;;11.60;8.47;;;3.30;54.80;;;;;;5053717;28;20537;-54
2022/01/29 06:54:03;;;;;;;16.60;9.90;;;3.30;50.90;;;;;;5053314;28;20508;-53
2022/01/29 06:56:30;;;;;;;15.40;10.40;;;3.30;54.00;;;;;;5053737;28;20533;-52
2022/01/29 06:58:56;;;;;;;21.60;10.87;;;3.40;53.10;;;;;;5052868;28;20549;-52
2022/01/29 07:01:23;;;;;;;22.63;11.20;;;3.40;46.70;;;;;;5053063;28;20552;-53
2022/01/29 07:03:49;;;;;;;15.93;8.50;;;3.40;52.00;;;;;;5053613;28;20466;-53
2022/01/29 07:06:16;;;;;;;16.83;10.03;;;3.40;51.90;;;;;;5053189;28;20525;-53
2022/01/29 07:08:42;;;;;;;16.70;10.30;;;3.40;48.50;;;;;;5053236;28;20513;-51
2022/01/29 07:11:10;;;;;;;16.80;9.17;;;3.40;47.30;;;;;;5052513;28;20543;-52
2022/01/29 07:13:37;;;;;;;11.53;8.20;;;3.50;43.40;;;;;;5053457;28;20450;-52
2022/01/29 07:16:04;;;;;;;14.73;9.70;;;3.50;45.70;;;;;;5053547;28;21020;-51
2022/01/29 07:18:30;;;;;;;16.30;9.10;;;3.40;49.20;;;;;;5053062;28;20442;-51
2022/01/29 07:20:57;;;;;;;12.60;8.07;;;3.50;45.80;;;;;;5054126;28;20537;-53
2022/01/29 07:23:23;;;;;;;11.00;8.27;;;3.50;44.70;;;;;;5053436;28;20472;-51
2022/01/29 07:25:50;;;;;;;14.67;10.10;;;3.50;39.90;;;;;;5053897;28;20878;-52
2022/01/29 07:28:18;;;;;;;11.50;8.13;;;3.50;40.90;;;;;;5052110;28;20577;-51
2022/01/29 07:30:45;;;;;;;15.60;8.53;;;3.50;42.40;;;;;;5053479;28;20473;-52
2022/01/29 07:33:12;;;;;;;14.03;8.80;;;3.50;44.10;;;;;;5053045;28;20453;-52
2022/01/29 07:35:38;;;;;;;15.23;9.87;;;3.50;39.60;;;;;;5052173;28;20552;-52
2022/01/29 07:38:05;;;;;;;10.70;7.83;;;3.50;41.50;;;;;;5052592;28;20533;-51
2022/01/29 07:40:31;;;;;;;14.23;7.30;;;3.50;43.30;;;;;;5053038;28;20453;-51
2022/01/29 07:42:58;;;;;;;11.87;7.30;;;3.60;42.40;;;;;;5052768;28;20533;-51
2022/01/29 07:45:26;;;;;;;15.43;8.67;;;3.60;41.10;;;;;;5052838;28;20923;-51
2022/01/29 07:47:53;;;;;;;14.97;8.13;;;3.60;39.70;;;;;;5052410;28;20474;-51
2022/01/29 07:50:19;;;;;;;11.60;8.47;;;3.60;40.80;;;;;;5052787;28;20529;-52
2022/01/29 07:52:46;;;;;;;10.27;8.60;;;3.60;38.60;;;;;;5052619;28;20540;-51
2022/01/29 07:55:12;;;;;;;14.93;9.27;;;3.70;40.30;;;;;;5052851;28;20555;-53
2022/01/29 07:57:39;;;;;;;15.03;11.40;;;3.70;39.70;;;;;;5052345;28;20450;-52
2022/01/29 08:00:07;;;;;;;10.73;9.40;;;3.70;38.70;;;;;;5051805;28;20497;-52
2022/01/29 08:02:34;;;;;;;12.60;9.07;;;3.70;38.40;;;;;;5052670;28;20485;-49
2022/01/29 08:05:01;;;;;;;9.40;8.27;;;3.70;39.20;;;;;;5052465;28;20493;-50
2022/01/29 08:07:27;;;;;;;9.90;7.80;;;3.80;33.60;;;;;;5052085;28;21098;-51
2022/01/29 08:09:54;;;;;;;14.30;8.80;;;3.80;35.60;;;;;;5052792;28;20536;-51
2022/01/29 08:12:21;;;;;;;14.10;8.70;;;3.80;35.40;;;;;;5052446;28;20536;-52
2022/01/29 08:14:47;;;;;;;10.83;9.10;;;3.80;36.20;;;;;;5050036;28;21063;-51
2022/01/29 08:17:14;;;;;;;11.17;8.40;;;3.80;34.20;;;;;;5032455;28;20478;-51
2022/01/29 08:19:41;;;;;;;9.50;7.70;;;3.80;33.90;;;;;;5032122;28;20554;-52
2022/01/29 08:22:08;;;;;;;10.73;7.90;;;3.90;31.80;;;;;;5034610;28;20533;-51
2022/01/29 08:24:35;;;;;;;11.53;7.60;;;3.90;34.10;;;;;;5052081;28;20501;-51
2022/01/29 08:27:01;;;;;;;8.50;7.30;;;3.90;34.30;;;;;;5052096;28;20453;-51
2022/01/29 08:29:28;;;;;;;12.03;8.23;;;3.90;32.20;;;;;;5051930;28;20528;-51
2022/01/29 08:31:54;;;;;;;11.00;8.83;;;3.90;32.30;;;;;;5051886;28;20612;-52
2022/01/29 08:34:21;;;;;;;11.30;8.33;;;3.90;30.40;;;;;;5051893;28;20549;-51
2022/01/29 08:36:49;;;;;;;16.00;9.67;;;3.90;32.00;;;;;;5051947;28;20802;-51
2022/01/29 08:39:15;;;;;;;15.33;8.93;;;4.00;29.80;;;;;;5051912;28;20500;-50
2022/01/29 08:41:42;;;;;;;11.23;8.20;;;4.00;29.90;;;;;;5051840;28;20537;-51
2022/01/29 08:44:08;;;;;;;14.50;9.23;;;4.10;30.50;;;;;;5051760;28;21042;-51
2022/01/29 08:46:35;;;;;;;13.40;9.53;;;4.10;28.90;;;;;;5051786;28;20629;-51
2022/01/29 08:49:02;;;;;;;15.80;10.07;;;4.10;29.70;;;;;;5051984;28;20572;-51
2022/01/29 08:51:28;;;;;;;14.80;9.37;;;4.10;28.40;;;;;;5052116;28;20504;-50
2022/01/29 08:53:56;;;;;;;15.10;9.90;;;4.20;28.70;;;;;;5050069;28;20560;-51
2022/01/29 08:56:23;;;;;;;14.73;9.10;;;4.20;28.40;;;;;;5051858;28;20478;-51
2022/01/29 08:58:50;;;;;;;16.30;9.80;;;4.20;28.00;;;;;;5050814;28;20446;-51
2022/01/29 09:01:17;;;;;;;9.70;8.70;;;4.30;26.60;;;;;;5051805;28;20533;-52
2022/01/29 09:03:44;;;;;;;11.63;8.70;;;4.30;26.80;;;;;;5051532;28;20450;-51
2022/01/29 09:06:11;;;;;;;9.40;8.10;;;4.30;26.30;;;;;;5051480;28;21006;-50
2022/01/29 09:08:40;;;;;;;8.43;7.20;;;4.30;25.20;;;;;;5049967;28;20488;-51
2022/01/29 09:11:08;;;;;;;11.17;7.97;;;4.40;24.70;;;;;;5051567;28;20536;-51
2022/01/29 09:13:35;;;;;;;9.97;8.13;;;4.40;25.10;;;;;;5050836;28;20462;-51
2022/01/29 09:16:01;;;;;;;9.53;7.80;;;4.50;24.70;;;;;;5051519;28;20533;-51
2022/01/29 09:18:28;;;;;;;12.43;9.13;;;4.50;24.40;;;;;;5051066;28;20495;-52
2022/01/29 09:20:54;;;;;;;12.73;8.30;;;4.60;24.50;;;;;;5051673;28;20533;-51
2022/01/29 09:23:21;;;;;;;10.00;8.63;;;4.50;24.10;;;;;;5051619;28;20541;-50
2022/01/29 09:25:48;;;;;;;9.90;8.90;;;4.60;23.70;;;;;;5050518;28;20604;-50
2022/01/29 09:28:16;;;;;;;10.83;9.47;;;4.60;23.20;;;;;;5049950;28;20792;-50
2022/01/29 09:30:44;;;;;;;10.00;9.07;;;4.60;22.80;;;;;;5051342;28;20484;-50
2022/01/29 09:33:11;;;;;;;10.90;9.10;;;4.70;22.30;;;;;;5051466;28;20477;-50
2022/01/29 09:35:39;;;;;;;12.23;9.83;;;4.70;21.80;;;;;;5050958;28;20549;-51
2022/01/29 09:38:05;;;;;;;13.40;9.87;;;4.70;21.10;;;;;;5050886;28;20453;-51
2022/01/29 09:40:32;;;;;;;12.53;10.60;;;4.70;21.00;;;;;;5051378;28;20539;-51
2022/01/29 09:43:01;;;;;;;12.03;10.77;;;4.70;21.20;;;;;;5051612;28;20445;-51
2022/01/29 09:45:29;;;;;;;12.63;10.77;;;4.80;21.40;;;;;;5051493;28;20477;-51
2022/01/29 09:48:01;;;;;;;15.57;10.87;;;4.80;20.70;;;;;;5050046;28;20552;-51
2022/01/29 09:50:28;;;;;;;12.87;10.90;;;4.80;20.10;;;;;;5051695;28;20533;-51
2022/01/29 09:52:55;;;;;;;13.90;10.97;;;4.90;72.30;;;;;;5051181;28;20477;-51
2022/01/29 09:55:22;;;;;;;14.30;10.47;;;4.90;78.50;;;;;;5051199;28;20545;-51
2022/01/29 09:57:48;;;;;;;15.50;12.03;;;4.90;81.00;;;;;;5050931;28;20532;-51
2022/01/29 10:00:16;;;;;;;17.03;11.80;;;4.90;81.00;;;;;;5051379;28;20537;-51
2022/01/29 10:02:44;;;;;;;17.67;12.77;;;5.00;86.50;;;;;;5051336;28;20530;-51
2022/01/29 10:05:12;;;;;;;16.53;11.77;;;5.00;84.30;;;;;;5050956;28;20469;-51
2022/01/29 10:07:39;;;;;;;14.80;12.40;;;5.10;91.10;;;;;;5054243;28;20485;-51
2022/01/29 10:10:18;;;;;;;15.33;12.70;;;5.10;89.10;;;;;;5054758;28;20887;-50
2022/01/29 10:12:44;;;;;;;13.40;12.00;;;5.10;90.90;;;;;;5053966;28;20544;-50
2022/01/29 10:15:11;;;;;;;14.00;12.53;;;5.10;93.20;;;;;;5054814;28;20501;-51
2022/01/29 10:17:50;;;;;;;19.20;12.53;;;5.20;95.60;;;;;;5054152;28;20954;-51
2022/01/29 10:20:20;;;;;;;18.53;13.00;;;5.20;99.30;;;;;;5054864;28;20990;-51
2022/01/29 10:22:50;;;;;;;19.03;14.50;;;5.20;99.90;;;;;;5054489;28;21184;-51
2022/01/29 10:25:19;;;;;;;16.07;12.97;;;5.30;99.90;;;;;;5054307;28;20509;-52
2022/01/29 10:28:22;;;;;;;15.63;12.87;;;5.40;99.90;;;;;;5053771;28;20892;-51
2022/01/29 10:30:57;;;;;;;13.67;12.27;;;5.40;97.70;;;;;;5035972;28;20893;-49
2022/01/29 10:33:27;;;;;;;14.33;12.83;;;5.40;99.90;;;;;;5034760;28;20485;-50
2022/01/29 10:35:55;;;;;;;18.30;13.60;;;5.40;99.90;;;;;;5034304;28;20944;-51
2022/01/29 10:38:24;;;;;;;13.90;12.50;;;5.50;99.90;;;;;;5044801;28;20478;-51
2022/01/29 10:41:11;;;;;;;15.80;13.20;;;5.50;99.90;;;;;;5054153;28;20515;-51
2022/01/29 10:43:53;;;;;;;20.63;14.20;;;5.50;99.90;;;;;;5053117;28;20496;-51
2022/01/29 10:46:25;;;;;;;15.30;13.50;;;5.60;99.90;;;;;;5054183;28;21030;-51
2022/01/29 10:48:53;;;;;;;17.33;12.50;;;5.60;99.90;;;;;;5053695;28;21052;-52
2022/01/29 10:51:19;;;;;;;19.70;13.63;;;5.60;99.90;;;;;;5053959;28;20449;-51
2022/01/29 10:53:46;;;;;;;13.83;12.33;;;5.70;99.90;;;;;;5053893;28;20548;-50
2022/01/29 10:56:12;;;;;;;13.77;12.30;;;5.70;99.90;;;;;;5054149;28;20532;-51
2022/01/29 10:58:43;;;;;;;15.03;12.63;;;5.70;99.90;;;;;;5053477;28;20939;-51
2022/01/29 11:01:15;;;;;;;14.50;12.80;;;5.70;99.90;;;;;;5053900;28;20981;-50
2022/01/29 11:03:41;;;;;;;15.00;12.77;;;5.80;99.90;;;;;;5053889;28;20450;-51
2022/01/29 11:06:13;;;;;;;14.77;12.63;;;5.80;99.90;;;;;;5053740;28;20508;-51
2022/01/29 11:08:41;;;;;;;17.27;12.80;;;5.80;99.90;;;;;;5052935;28;20504;-51
2022/01/29 11:11:09;;;;;;;16.33;13.57;;;5.90;99.90;;;;;;5053595;28;20536;-50
2022/01/29 11:13:36;;;;;;;14.27;12.77;;;6.00;99.90;;;;;;5052652;28;20466;-51
2022/01/29 11:16:04;;;;;;;13.10;11.70;;;6.00;99.90;;;;;;5053568;28;20869;-51
2022/01/29 11:18:33;;;;;;;17.00;12.57;;;6.00;99.90;;;;;;5052855;28;21007;-51
2022/01/29 11:21:00;;;;;;;13.70;12.27;;;6.10;99.90;;;;;;5053414;28;20537;-51
2022/01/29 11:23:29;;;;;;;13.40;12.00;;;6.10;99.90;;;;;;5053522;28;20536;-50
2022/01/29 11:25:58;;;;;;;13.47;11.80;;;6.10;99.90;;;;;;5053222;28;20449;-51
2022/01/29 11:28:27;;;;;;;12.73;11.47;;;6.10;99.90;;;;;;5053179;28;20564;-52
2022/01/29 11:31:21;;;;;;;16.47;11.07;;;6.20;99.90;;;;;;5053485;28;20504;-51
2022/01/29 11:34:19;;;;;;;12.70;11.50;;;6.20;99.90;;;;;;5053320;28;20466;-51
2022/01/29 11:37:06;;;;;;;13.13;11.80;;;6.20;99.90;;;;;;5053132;28;20516;-51
2022/01/29 11:39:36;;;;;;;11.57;10.47;;;6.30;99.90;;;;;;5052727;28;20500;-51
2022/01/29 11:42:31;;;;;;;10.10;9.10;;;6.30;99.90;;;;;;5051771;28;20535;-51
2022/01/29 11:45:06;;;;;;;11.33;10.23;;;6.30;99.90;;;;;;5052950;28;20469;-51
2022/01/29 11:47:48;;;;;;;11.87;10.67;;;6.40;99.90;;;;;;5052718;28;20446;-51
2022/01/29 11:50:43;;;;;;;11.50;9.40;;;6.40;99.90;;;;;;5051936;28;21005;-51
2022/01/29 11:53:09;;;;;;;10.03;9.13;;;6.40;99.90;;;;;;5040872;28;21052;-51
2022/01/29 11:55:40;;;;;;;10.07;9.13;;;6.50;99.90;;;;;;5052415;28;21059;-51
2022/01/29 11:58:21;;;;;;;10.40;9.47;;;6.40;99.90;;;;;;5052095;28;20955;-51
2022/01/29 12:00:51;;;;;;;10.67;9.57;;;6.50;99.90;;;;;;5052179;28;20429;-52
2022/01/29 12:03:52;;;;;;;10.47;9.47;;;6.60;99.90;;;;;;5052139;28;20908;-50
2022/01/29 12:06:22;;;;;;;10.50;9.40;;;6.60;99.90;;;;;;5052217;28;20445;-50
2022/01/29 12:09:25;;;;;;;11.57;9.57;;;6.60;99.90;;;;;;5051982;28;20482;-50
2022/01/29 12:12:15;;;;;;;9.60;8.80;;;6.60;99.90;;;;;;5051358;28;20536;-50
2022/01/29 12:14:42;;;;;;;9.47;8.73;;;6.60;99.90;;;;;;5032383;28;20506;-51
2022/01/29 12:17:09;;;;;;;8.97;8.17;;;6.70;99.90;;;;;;5032456;28;20960;-50
2022/01/29 12:19:37;;;;;;;8.87;8.07;;;6.70;99.90;;;;;;5042054;28;20530;-51
2022/01/29 12:22:09;;;;;;;10.03;8.20;;;6.70;99.90;;;;;;5052322;28;20806;-50
2022/01/29 12:24:36;;;;;;;9.10;7.80;;;6.70;99.90;;;;;;5052116;28;20477;-50
2022/01/29 12:27:04;;;;;;;8.60;7.80;;;6.80;99.90;;;;;;5052191;28;20522;-51
2022/01/29 12:29:32;;;;;;;8.70;7.80;;;6.80;99.90;;;;;;5051017;28;20478;-55
2022/01/29 12:31:59;;;;;;;9.50;8.50;;;6.80;99.90;;;;;;5052065;28;20461;-50
2022/01/29 12:34:27;;;;;;;8.63;7.90;;;6.80;99.90;;;;;;5052139;28;20466;-51
2022/01/29 12:37:07;;;;;;;8.70;8.00;;;6.80;99.90;;;;;;5052044;28;20530;-51
2022/01/29 12:39:34;;;;;;;9.37;8.30;;;6.80;99.90;;;;;;5053440;28;20510;-51
2022/01/29 12:42:06;;;;;;;8.00;7.20;;;6.80;99.90;;;;;;5054119;28;21038;-52
2022/01/29 12:44:34;;;;;;;7.83;7.13;;;6.80;99.90;;;;;;5052155;28;20474;-51
2022/01/29 12:47:01;;;;;;;8.07;7.30;;;6.80;99.90;;;;;;5052337;28;20490;-51
2022/01/29 12:49:27;;;;;;;7.73;7.13;;;6.90;99.90;;;;;;5051776;28;20585;-51
2022/01/29 12:51:55;;;;;;;8.03;7.17;;;6.90;99.90;;;;;;5051621;28;20533;-50
2022/01/29 12:54:23;;;;;;;8.80;8.00;;;6.90;99.90;;;;;;5051723;28;20465;-50
2022/01/29 12:56:50;;;;;;;7.37;6.70;;;7.00;99.90;;;;;;5051603;28;20549;-50
2022/01/29 12:59:18;;;;;;;7.50;6.80;;;7.00;99.90;;;;;;5051623;28;20545;-51
2022/01/29 13:01:47;;;;;;;8.10;7.30;;;7.00;99.90;;;;;;5051581;28;20513;-49